Pagrindinis puslapis
METAR-TAF:

METAR-TAF

Oro uostai :

Tennant Creek, Australija

platuma: 19-38-04S, ilguma: 134-11-00E, Aukštis: 377 m

Dabartinis oras

Ataskaita buvo paskelbta 23 minutes, ne 08:00 UTC
Vėjas 12 kt iš Pietų/Pietryčių
Temperatūra 37°C
Drėgmė 12%
Slėgis 1005 hPa
Matomumas 10 km arba daugiau

METAR: YTNK 230800Z AUTO 15012KT 9999 // NCD 37/03 Q1005

Laikas: 17:53 (08:23 UTC)

Prognozė

Ataskaita buvo paskelbta 2 valandos ir 19 minutes, ne 06:04 UTC
Prognozė galioja nuo 23 metu 08 UTC su 23 metu 20 UTC
Vėjas 12 kt iš Pietryčių
Matomumas 10 km arba daugiau
nėra debesų žemiau 1500 m ir nėra kamuolinių lietaus debesų

TAF: YTNK 230604Z 2308/2320 14012KT CAVOK

Orai ataskaitas ir orų prognozės (METAR, TAF).

turimą stotys yra geltonos ir raudonos taškus žemėlapyje.

Perkelti pele per norėdami pamatyti stoties vardą.

Tada spustelėkite, norėdami matyti oro stebėjimo ir prognozės.

Norėdami pakeisti žemėlapį: spustelėkite ant žalios mygtukų su juodo kryžiaus žemyn,; žalią mygtuką su brūkšneliu, jei norite nutolinti; arba žalių rodyklių gretimoms žemėlapius.


METAR-TAF: